createdAt,value
2017-11-27T00:01:57.527Z,5.84
2017-11-27T00:04:28.849Z,5.74
2017-11-27T00:07:00.732Z,5.78
2017-11-27T00:09:32.426Z,5.82
2017-11-27T00:12:05.247Z,5.82
2017-11-27T00:14:36.869Z,5.83
2017-11-27T00:17:08.255Z,5.86
2017-11-27T00:19:39.577Z,5.90
2017-11-27T00:22:12.116Z,5.91
2017-11-27T00:24:43.449Z,5.99
2017-11-27T00:27:14.792Z,6.03
2017-11-27T00:29:47.001Z,6.01
2017-11-27T00:32:18.414Z,6.11
2017-11-27T00:34:50.920Z,6.14
2017-11-27T00:37:22.534Z,6.15
2017-11-27T00:39:53.997Z,6.03
2017-11-27T00:42:25.517Z,6.14
2017-11-27T00:44:57.169Z,6.18
2017-11-27T00:47:28.516Z,6.25
2017-11-27T00:49:59.825Z,6.17
2017-11-27T00:52:31.220Z,6.10
2017-11-27T00:55:02.772Z,6.09
2017-11-27T00:57:34.178Z,5.98
2017-11-27T01:00:07.511Z,6.00
2017-11-27T01:02:38.880Z,6.09
2017-11-27T01:05:10.332Z,6.06
2017-11-27T01:07:42.274Z,6.16
2017-11-27T01:10:13.963Z,6.07
2017-11-27T01:12:45.335Z,6.11
2017-11-27T01:15:16.967Z,6.17
2017-11-27T01:17:48.389Z,5.86
2017-11-27T01:20:19.859Z,5.85
2017-11-27T01:22:51.680Z,5.80
2017-11-27T01:25:23.365Z,5.77
2017-11-27T01:27:54.881Z,5.88
2017-11-27T01:30:28.809Z,5.97
2017-11-27T01:33:00.308Z,6.01
2017-11-27T01:35:31.738Z,5.88
2017-11-27T01:38:04.129Z,5.92
2017-11-27T01:40:35.645Z,5.94
2017-11-27T01:43:06.995Z,5.97
2017-11-27T01:45:38.698Z,5.92
2017-11-27T01:48:10.357Z,5.80
2017-11-27T01:50:42.123Z,5.67
2017-11-27T01:53:13.475Z,5.50
2017-11-27T01:55:44.913Z,5.38
2017-11-27T01:58:16.302Z,5.31
2017-11-27T02:00:47.961Z,5.33
2017-11-27T02:03:19.444Z,5.24
2017-11-27T02:05:50.829Z,5.16
2017-11-27T02:08:22.240Z,5.13
2017-11-27T02:10:53.651Z,5.10
2017-11-27T02:13:25.282Z,5.14
2017-11-27T02:15:56.941Z,5.15
2017-11-27T02:18:28.282Z,5.09
2017-11-27T02:20:59.601Z,5.05
2017-11-27T02:23:30.995Z,5.00
2017-11-27T02:26:03.215Z,4.99
2017-11-27T02:28:34.568Z,4.90
2017-11-27T02:31:06.225Z,4.83
2017-11-27T02:33:38.847Z,4.81
2017-11-27T02:36:10.756Z,4.76
2017-11-27T02:38:42.106Z,4.77
2017-11-27T02:41:13.508Z,4.75
2017-11-27T02:43:44.919Z,4.72
2017-11-27T02:46:16.638Z,4.70
2017-11-27T02:48:49.126Z,4.68
2017-11-27T02:51:20.491Z,4.63
2017-11-27T02:53:51.899Z,4.59
2017-11-27T02:56:23.522Z,4.60
2017-11-27T02:58:55.095Z,4.52
2017-11-27T03:01:27.304Z,4.50
2017-11-27T03:03:58.707Z,4.48
2017-11-27T03:06:30.433Z,4.54
2017-11-27T03:09:02.327Z,4.65
2017-11-27T03:11:33.645Z,4.73
2017-11-27T03:14:07.155Z,4.77
2017-11-27T03:16:38.771Z,4.86
2017-11-27T03:19:10.106Z,4.87
2017-11-27T03:21:41.446Z,4.79
2017-11-27T03:26:35.634Z,4.86
2017-11-27T03:29:07.357Z,4.86
2017-11-27T03:31:39.062Z,4.80
2017-11-27T03:34:11.227Z,4.81
2017-11-27T03:36:42.693Z,4.86
2017-11-27T03:39:14.154Z,4.86
2017-11-27T03:41:45.832Z,4.78
2017-11-27T03:44:17.694Z,4.69
2017-11-27T03:46:49.053Z,4.63
2017-11-27T03:49:20.583Z,4.57
2017-11-27T03:51:52.481Z,4.49
2017-11-27T03:54:24.268Z,4.56
2017-11-27T03:56:55.737Z,4.59
2017-11-27T03:59:27.229Z,4.67
2017-11-27T04:01:58.840Z,4.79
2017-11-27T04:04:30.229Z,4.84
2017-11-27T04:07:01.786Z,4.80
2017-11-27T04:09:33.537Z,4.91
2017-11-27T04:12:06.321Z,4.99
2017-11-27T04:14:37.690Z,5.05
2017-11-27T04:17:09.186Z,5.15
2017-11-27T04:19:40.824Z,5.16
2017-11-27T04:22:12.597Z,5.18
2017-11-27T04:24:45.238Z,5.18
2017-11-27T04:27:16.857Z,5.16
2017-11-27T04:29:48.998Z,5.16
2017-11-27T04:32:20.517Z,5.20
2017-11-27T04:34:52.319Z,5.20
2017-11-27T04:37:23.752Z,5.04
2017-11-27T04:39:55.162Z,4.99
2017-11-27T04:42:27.080Z,5.02
2017-11-27T04:44:58.593Z,5.16
2017-11-27T04:47:31.229Z,5.16
2017-11-27T04:50:04.967Z,5.26
2017-11-27T04:52:36.582Z,5.32
2017-11-27T04:55:07.936Z,5.38
2017-11-27T04:57:39.585Z,5.30
2017-11-27T05:00:11.155Z,5.26
2017-11-27T05:02:42.495Z,5.28
2017-11-27T05:05:13.840Z,5.39
2017-11-27T05:07:45.991Z,5.26
2017-11-27T05:10:17.513Z,5.20
2017-11-27T05:12:49.038Z,5.22
2017-11-27T05:15:20.757Z,5.19
2017-11-27T05:17:52.194Z,5.31
2017-11-27T05:20:23.713Z,5.12
2017-11-27T05:22:55.340Z,5.19
2017-11-27T05:25:27.164Z,5.20
2017-11-27T05:27:58.541Z,5.23
2017-11-27T05:30:29.880Z,5.15
2017-11-27T05:33:01.420Z,5.20
2017-11-27T05:35:32.760Z,5.06
2017-11-27T05:38:05.013Z,5.00
2017-11-27T05:40:36.798Z,4.87
2017-11-27T05:43:08.332Z,4.82
2017-11-27T05:45:41.204Z,4.85
2017-11-27T05:48:12.959Z,4.84
2017-11-27T05:50:45.421Z,4.71
2017-11-27T05:53:17.076Z,4.63
2017-11-27T05:55:48.466Z,4.52
2017-11-27T05:58:20.130Z,4.55
2017-11-27T06:00:51.536Z,4.47
2017-11-27T06:03:23.037Z,4.46
2017-11-27T06:05:54.776Z,4.48
2017-11-27T06:08:26.390Z,4.49
2017-11-27T06:10:58.698Z,4.46
2017-11-27T06:13:31.690Z,4.45
2017-11-27T06:16:04.439Z,4.48
2017-11-27T06:18:35.826Z,4.50
2017-11-27T06:21:07.667Z,4.56
2017-11-27T06:23:39.200Z,4.73
2017-11-27T06:26:10.772Z,4.73
2017-11-27T06:28:42.461Z,4.65
2017-11-27T06:31:13.872Z,4.78
2017-11-27T06:33:45.223Z,4.68
2017-11-27T06:36:16.957Z,4.72
2017-11-27T06:38:48.409Z,4.67
2017-11-27T06:41:19.831Z,4.77
2017-11-27T06:43:51.353Z,4.73
2017-11-27T06:46:23.077Z,4.75
2017-11-27T06:48:54.432Z,4.87
2017-11-27T06:51:26.077Z,4.87
2017-11-27T06:53:58.737Z,4.87
2017-11-27T06:56:31.481Z,4.84
2017-11-27T06:59:03.305Z,4.73
2017-11-27T07:01:35.361Z,4.56
2017-11-27T07:04:16.206Z,4.59
2017-11-27T07:06:47.599Z,4.62
2017-11-27T07:09:18.953Z,4.65
2017-11-27T07:11:50.558Z,4.71
2017-11-27T07:14:22.013Z,4.73
2017-11-27T07:16:53.365Z,4.64
2017-11-27T07:19:25.432Z,4.70
2017-11-27T07:21:57.998Z,4.83
2017-11-27T07:24:30.180Z,5.05
2017-11-27T07:27:02.117Z,4.92
2017-11-27T07:29:36.317Z,4.90
2017-11-27T07:32:08.964Z,4.88
2017-11-27T07:34:40.633Z,4.95
2017-11-27T07:37:16.221Z,4.89
2017-11-27T07:39:53.984Z,4.84
2017-11-27T07:42:25.585Z,4.67
2017-11-27T07:44:57.042Z,4.69
2017-11-27T07:47:30.547Z,4.83
2017-11-27T07:50:04.901Z,4.86
2017-11-27T07:52:36.228Z,5.02
2017-11-27T07:55:07.862Z,5.10
2017-11-27T07:57:40.098Z,5.46
2017-11-27T08:00:12.690Z,5.88
2017-11-27T08:02:45.572Z,6.36
2017-11-27T08:05:17.012Z,6.94
2017-11-27T08:07:50.684Z,7.13
2017-11-27T08:10:22.043Z,7.10
2017-11-27T08:12:54.272Z,7.25
2017-11-27T08:15:25.637Z,7.03
2017-11-27T08:17:58.608Z,6.85
2017-11-27T08:20:31.422Z,6.79
2017-11-27T08:23:03.194Z,6.56
2017-11-27T08:25:35.952Z,6.66
2017-11-27T08:28:07.991Z,6.49
2017-11-27T08:30:40.754Z,6.18
2017-11-27T08:33:12.080Z,6.34
2017-11-27T08:35:44.814Z,6.52
2017-11-27T08:38:16.251Z,6.59
2017-11-27T08:40:47.886Z,6.45
2017-11-27T08:43:19.347Z,6.25
2017-11-27T08:45:52.166Z,6.38
2017-11-27T08:48:23.991Z,6.28
2017-11-27T08:50:55.343Z,6.57
2017-11-27T08:53:27.984Z,6.46
2017-11-27T08:55:59.749Z,6.21
2017-11-27T08:58:31.697Z,6.25
2017-11-27T09:01:03.384Z,6.42
2017-11-27T09:03:34.718Z,6.29
2017-11-27T09:06:07.036Z,6.49
2017-11-27T09:08:38.681Z,6.35
2017-11-27T09:11:10.050Z,6.35
2017-11-27T09:13:41.580Z,6.36
2017-11-27T09:16:14.204Z,6.38
2017-11-27T09:18:45.599Z,6.53
2017-11-27T09:21:16.962Z,6.58
2017-11-27T09:23:48.577Z,6.63
2017-11-27T09:26:20.347Z,6.48
2017-11-27T09:28:51.691Z,6.53
2017-11-27T09:31:23.162Z,6.61
2017-11-27T09:33:54.521Z,6.58
2017-11-27T09:36:26.325Z,6.71
2017-11-27T09:38:57.919Z,6.91
2017-11-27T09:41:29.293Z,6.79
2017-11-27T09:44:01.409Z,6.57
2017-11-27T09:46:33.036Z,6.63
2017-11-27T09:49:04.571Z,6.60
2017-11-27T09:51:36.336Z,6.42
2017-11-27T09:54:08.456Z,6.53
2017-11-27T09:56:39.892Z,6.66
2017-11-27T09:59:11.290Z,6.39
2017-11-27T10:01:42.900Z,6.56
2017-11-27T10:04:14.553Z,6.47
2017-11-27T10:06:46.151Z,6.74
2017-11-27T10:09:17.862Z,6.72
2017-11-27T10:11:50.890Z,6.79
2017-11-27T10:14:22.397Z,6.63
2017-11-27T10:16:54.310Z,6.81
2017-11-27T10:19:26.002Z,6.86
2017-11-27T10:21:57.902Z,6.79
2017-11-27T10:24:29.798Z,6.82
2017-11-27T10:27:01.616Z,7.30
2017-11-27T10:29:33.565Z,7.17
2017-11-27T10:32:06.165Z,7.08
2017-11-27T10:34:37.788Z,7.27
2017-11-27T10:37:09.611Z,7.21
2017-11-27T10:39:41.697Z,7.31
2017-11-27T10:42:14.665Z,7.14
2017-11-27T10:44:47.287Z,7.10
2017-11-27T10:47:19.503Z,7.01
2017-11-27T10:49:51.210Z,7.12
2017-11-27T10:52:23.265Z,7.11
2017-11-27T10:54:54.991Z,7.11
2017-11-27T10:57:26.825Z,7.28
2017-11-27T10:59:58.580Z,7.09
2017-11-27T11:02:30.861Z,6.96
2017-11-27T11:05:02.944Z,7.06
2017-11-27T11:07:35.017Z,7.07
2017-11-27T11:10:09.418Z,7.00
2017-11-27T11:12:41.184Z,7.03
2017-11-27T11:15:13.299Z,6.88
2017-11-27T11:17:45.066Z,7.08
2017-11-27T11:20:17.181Z,7.05
2017-11-27T11:22:49.039Z,6.97
2017-11-27T11:25:20.789Z,7.15
2017-11-27T11:27:53.079Z,7.24
2017-11-27T11:30:24.965Z,7.24
2017-11-27T11:32:56.912Z,7.01
2017-11-27T11:35:28.717Z,7.17
2017-11-27T11:38:00.341Z,7.21
2017-11-27T11:40:32.090Z,7.17
2017-11-27T11:43:04.170Z,7.20
2017-11-27T11:45:35.815Z,7.36
2017-11-27T11:48:07.980Z,7.27
2017-11-27T11:50:39.600Z,7.28
2017-11-27T11:53:11.138Z,7.28
2017-11-27T11:55:43.020Z,7.48
2017-11-27T11:58:15.253Z,7.50
2017-11-27T12:00:46.946Z,7.33
2017-11-27T12:03:18.837Z,7.37
2017-11-27T12:05:50.519Z,7.35
2017-11-27T12:08:22.249Z,7.39
2017-11-27T12:10:54.084Z,7.24
2017-11-27T12:13:25.766Z,7.36
2017-11-27T12:15:57.670Z,7.45
2017-11-27T12:18:29.792Z,7.59
2017-11-27T12:21:01.987Z,7.53
2017-11-27T12:23:34.011Z,7.52
2017-11-27T12:26:07.237Z,7.47
2017-11-27T12:28:39.525Z,7.75
2017-11-27T12:31:11.447Z,7.84
2017-11-27T12:33:43.295Z,7.83
2017-11-27T12:36:16.215Z,7.61
2017-11-27T12:38:48.689Z,7.65
2017-11-27T12:41:20.751Z,7.80
2017-11-27T12:43:52.611Z,7.77
2017-11-27T12:46:24.445Z,7.79
2017-11-27T12:48:57.681Z,7.71
2017-11-27T12:51:29.546Z,7.69
2017-11-27T12:54:03.811Z,7.61
2017-11-27T12:56:35.640Z,7.58
2017-11-27T12:59:07.773Z,7.63
2017-11-27T13:01:39.566Z,7.55
2017-11-27T13:04:12.274Z,7.70
2017-11-27T13:06:44.166Z,7.56
2017-11-27T13:09:16.270Z,7.66
2017-11-27T13:11:48.140Z,7.68
2017-11-27T13:14:20.072Z,7.77
2017-11-27T13:16:52.268Z,7.64
2017-11-27T13:19:24.049Z,7.66
2017-11-27T13:21:55.811Z,7.81
2017-11-27T13:24:28.121Z,7.89
2017-11-27T13:27:00.939Z,7.79
2017-11-27T13:29:33.764Z,7.72
2017-11-27T13:32:06.410Z,7.73
2017-11-27T13:34:39.183Z,7.69
2017-11-27T13:37:11.250Z,7.64
2017-11-27T13:39:43.033Z,7.64
2017-11-27T13:42:15.954Z,7.65
2017-11-27T13:44:47.799Z,7.68
2017-11-27T13:47:20.021Z,7.68
2017-11-27T13:49:53.198Z,7.79
2017-11-27T13:52:25.152Z,7.72
2017-11-27T13:54:57.290Z,7.74
2017-11-27T13:57:29.782Z,7.78
2017-11-27T14:00:03.655Z,7.79
2017-11-27T14:02:36.329Z,7.76
2017-11-27T14:05:08.221Z,7.73
2017-11-27T14:07:40.459Z,7.76
2017-11-27T14:10:12.323Z,7.71
2017-11-27T14:12:45.098Z,7.69
2017-11-27T14:15:17.321Z,7.71
2017-11-27T14:17:49.594Z,7.71
2017-11-27T14:20:21.651Z,7.66
2017-11-27T14:22:54.236Z,7.64
2017-11-27T14:25:29.074Z,7.60
2017-11-27T14:28:02.169Z,7.64
2017-11-27T14:30:35.662Z,7.68
2017-11-27T14:33:08.002Z,7.65
2017-11-27T14:35:41.380Z,7.64
2017-11-27T14:38:13.451Z,7.64
2017-11-27T14:40:45.569Z,7.66
2017-11-27T14:43:17.577Z,7.72
2017-11-27T14:45:49.969Z,7.68
2017-11-27T14:48:21.973Z,7.67
2017-11-27T14:50:53.939Z,7.63
2017-11-27T14:53:25.938Z,7.74
2017-11-27T14:55:58.289Z,7.62
2017-11-27T14:58:30.543Z,7.64
2017-11-27T15:01:03.442Z,7.68
2017-11-27T15:03:35.898Z,7.70
2017-11-27T15:06:08.316Z,7.69
2017-11-27T15:08:40.225Z,7.67
2017-11-27T15:11:12.197Z,7.69
2017-11-27T15:13:44.478Z,7.63
2017-11-27T15:16:16.938Z,7.65
2017-11-27T15:18:50.958Z,7.70
2017-11-27T15:21:22.957Z,7.73
2017-11-27T15:29:30.899Z,7.83
2017-11-27T15:32:06.160Z,7.77
2017-11-27T15:34:38.177Z,7.78
2017-11-27T15:37:10.275Z,7.82
2017-11-27T15:39:42.267Z,7.78
2017-11-27T15:42:15.984Z,7.77
2017-11-27T15:44:48.157Z,7.81
2017-11-27T15:47:20.732Z,7.79
2017-11-27T15:49:52.964Z,7.85
2017-11-27T15:52:25.315Z,7.84
2017-11-27T15:54:57.770Z,7.85
2017-11-27T15:57:30.188Z,7.86
2017-11-27T16:00:04.894Z,7.82
2017-11-27T16:02:37.159Z,7.85
2017-11-27T16:05:10.915Z,7.89
2017-11-27T16:07:44.546Z,7.91
2017-11-27T16:10:16.932Z,7.90
2017-11-27T16:12:49.298Z,7.90
2017-11-27T16:15:21.409Z,7.89
2017-11-27T16:17:53.532Z,7.88
2017-11-27T16:20:25.605Z,7.87
2017-11-27T16:22:58.353Z,7.87
2017-11-27T16:25:30.635Z,7.88
2017-11-27T16:28:04.250Z,7.95
2017-11-27T16:30:36.292Z,7.86
2017-11-27T16:33:09.006Z,7.81
2017-11-27T16:35:52.712Z,7.90
2017-11-27T16:38:25.211Z,7.80
2017-11-27T16:40:57.168Z,7.87
2017-11-27T16:43:31.420Z,7.85
2017-11-27T16:46:06.331Z,7.83
2017-11-27T16:48:38.285Z,7.86
2017-11-27T16:51:10.848Z,7.93
2017-11-27T16:53:43.526Z,7.89
2017-11-27T16:56:15.878Z,7.90
2017-11-27T16:58:48.107Z,7.87
2017-11-27T17:01:20.821Z,7.88
2017-11-27T17:03:53.787Z,7.85
2017-11-27T17:06:27.101Z,7.87
2017-11-27T17:09:00.025Z,7.82
2017-11-27T17:12:04.806Z,7.83
2017-11-27T17:14:38.709Z,7.78
2017-11-27T17:17:17.899Z,7.85
2017-11-27T17:20:05.666Z,7.77
2017-11-27T17:25:43.075Z,7.86
2017-11-27T17:28:21.849Z,7.75
2017-11-27T17:30:55.562Z,7.77
2017-11-27T17:33:28.758Z,7.79
2017-11-27T17:36:04.432Z,7.75
2017-11-27T17:38:36.833Z,7.74
2017-11-27T17:41:09.073Z,7.66
2017-11-27T17:43:42.172Z,7.70
2017-11-27T17:46:15.930Z,7.64
2017-11-27T17:48:47.965Z,7.65
2017-11-27T17:51:21.175Z,7.64
2017-11-27T17:53:54.259Z,7.65
2017-11-27T17:56:26.954Z,7.64
2017-11-27T17:58:58.870Z,7.55
2017-11-27T18:01:31.154Z,7.61
2017-11-27T18:04:04.075Z,7.56
2017-11-27T18:06:36.406Z,7.57
2017-11-27T18:09:08.442Z,7.55
2017-11-27T18:14:46.104Z,7.57
2017-11-27T18:17:18.485Z,7.55
2017-11-27T18:19:51.233Z,7.56
2017-11-27T18:22:23.505Z,7.51
2017-11-27T18:24:55.639Z,7.51
2017-11-27T18:27:27.863Z,7.53
2017-11-27T18:30:01.751Z,7.55
2017-11-27T18:32:33.766Z,7.54
2017-11-27T18:35:06.811Z,7.50
2017-11-27T18:37:40.013Z,7.49
2017-11-27T18:40:12.158Z,7.42
2017-11-27T18:42:44.973Z,7.51
2017-11-27T18:45:17.550Z,7.47
2017-11-27T18:47:49.794Z,7.55
2017-11-27T18:50:21.795Z,7.55
2017-11-27T18:52:54.376Z,7.51
2017-11-27T18:55:27.987Z,7.54
2017-11-27T19:01:01.313Z,7.48
2017-11-27T19:03:36.921Z,7.54
2017-11-27T19:06:11.204Z,7.56
2017-11-27T19:08:43.527Z,7.50
2017-11-27T19:11:15.706Z,7.49
2017-11-27T19:13:48.018Z,7.53
2017-11-27T19:16:20.405Z,7.48
2017-11-27T19:18:52.754Z,7.54
2017-11-27T19:21:24.796Z,7.60
2017-11-27T19:23:57.831Z,7.63
2017-11-27T19:26:30.303Z,7.61
2017-11-27T19:29:03.668Z,7.65
2017-11-27T19:31:38.107Z,7.65
2017-11-27T19:34:10.286Z,7.65
2017-11-27T19:36:42.767Z,7.54
2017-11-27T19:39:15.275Z,7.64
2017-11-27T19:41:48.108Z,7.66
2017-11-27T19:44:20.377Z,7.62
2017-11-27T19:46:53.438Z,7.58
2017-11-27T19:49:25.998Z,7.62
2017-11-27T19:51:59.418Z,7.63
2017-11-27T19:54:32.319Z,7.56
2017-11-27T19:57:04.991Z,7.69
2017-11-27T19:59:39.105Z,7.64
2017-11-27T20:02:12.615Z,7.59
2017-11-27T20:04:45.229Z,7.56
2017-11-27T20:07:18.205Z,7.57
2017-11-27T20:09:51.984Z,7.54
2017-11-27T20:12:25.230Z,7.54
2017-11-27T20:14:58.119Z,7.54
2017-11-27T20:17:31.201Z,7.55
2017-11-27T20:20:06.493Z,7.51
2017-11-27T20:22:39.495Z,7.46
2017-11-27T20:25:11.657Z,7.56
2017-11-27T20:27:44.015Z,7.50
2017-11-27T20:30:18.804Z,7.55
2017-11-27T20:32:50.926Z,7.46
2017-11-27T20:35:23.590Z,7.46
2017-11-27T20:37:55.943Z,7.46
2017-11-27T20:40:29.186Z,7.42
2017-11-27T20:43:02.369Z,7.43
2017-11-27T20:45:37.381Z,7.46
2017-11-27T20:48:10.705Z,7.44
2017-11-27T20:50:43.192Z,7.50
2017-11-27T20:53:15.597Z,7.43
2017-11-27T20:55:48.216Z,7.41
2017-11-27T20:58:20.646Z,7.38
2017-11-27T21:00:52.773Z,7.43
2017-11-27T21:03:25.497Z,7.41
2017-11-27T21:05:58.526Z,7.40
2017-11-27T21:08:32.093Z,7.44
2017-11-27T21:11:04.574Z,7.40
2017-11-27T21:13:38.646Z,7.40
2017-11-27T21:18:41.083Z,7.46
2017-11-27T21:21:13.978Z,7.43
2017-11-27T21:26:41.152Z,7.40
2017-11-27T21:29:13.201Z,7.38
2017-11-27T21:31:47.746Z,7.36
2017-11-27T21:34:21.474Z,7.43
2017-11-27T21:36:57.161Z,7.38
2017-11-27T21:39:29.421Z,7.42
2017-11-27T21:42:04.036Z,7.44
2017-11-27T21:44:36.162Z,7.43
2017-11-27T21:47:08.348Z,7.45
2017-11-27T21:49:40.601Z,7.41
2017-11-27T21:52:13.397Z,7.45
2017-11-27T21:54:45.535Z,7.39
2017-11-27T21:57:17.595Z,7.38
2017-11-27T21:59:49.915Z,7.37
2017-11-27T22:02:21.871Z,7.38
2017-11-27T22:04:54.385Z,7.38
2017-11-27T22:07:26.257Z,7.36
2017-11-27T22:09:58.185Z,7.31
2017-11-27T22:12:30.836Z,7.38
2017-11-27T22:15:03.299Z,7.41
2017-11-27T22:17:35.064Z,7.37
2017-11-27T22:20:09.749Z,7.38
2017-11-27T22:22:42.123Z,7.43
2017-11-27T22:25:14.009Z,7.49
2017-11-27T22:27:45.790Z,7.46
2017-11-27T22:30:17.361Z,7.44
2017-11-27T22:32:49.177Z,7.47
2017-11-27T22:35:20.665Z,7.50
2017-11-27T22:37:52.193Z,7.51
2017-11-27T22:40:24.097Z,7.39
2017-11-27T22:42:55.718Z,7.35
2017-11-27T22:45:27.217Z,7.39
2017-11-27T22:47:58.969Z,7.42
2017-11-27T22:50:30.600Z,7.50
2017-11-27T22:53:02.385Z,7.57
2017-11-27T22:55:34.271Z,7.50
2017-11-27T22:58:07.001Z,7.46
2017-11-27T23:00:38.660Z,7.42
2017-11-27T23:03:10.408Z,7.39
2017-11-27T23:05:41.849Z,7.44
2017-11-27T23:08:13.778Z,7.43
2017-11-27T23:10:46.103Z,7.49
2017-11-27T23:13:17.492Z,7.50
2017-11-27T23:15:48.994Z,7.44
2017-11-27T23:18:20.749Z,7.53
2017-11-27T23:20:52.476Z,7.43
2017-11-27T23:23:23.944Z,7.39
2017-11-27T23:25:55.634Z,7.44
2017-11-27T23:28:27.205Z,7.38
2017-11-27T23:30:58.598Z,7.34
2017-11-27T23:33:32.070Z,7.35
2017-11-27T23:36:05.061Z,7.41
2017-11-27T23:38:36.540Z,7.46
2017-11-27T23:41:07.990Z,7.40
2017-11-27T23:43:39.632Z,7.47
2017-11-27T23:46:11.224Z,7.48
2017-11-27T23:48:42.677Z,7.46
2017-11-27T23:51:14.382Z,7.45
2017-11-27T23:53:45.811Z,7.47
2017-11-27T23:56:17.320Z,7.42
2017-11-27T23:58:50.858Z,7.47
